TimeEDT,TemperatureF,Dew PointF,Humidity,Sea Level PressureIn,VisibilityMPH,Wind Direction,Wind SpeedMPH,Gust SpeedMPH,PrecipitationIn,Events,Conditions,WindDirDegrees,DateUTC
12:53 AM,54.0,50.0,86,29.73,10.0,Calm,Calm,-,N/A,,Overcast,0,2013-06-14 04:53:00
1:53 AM,53.1,50.0,89,29.71,10.0,Calm,Calm,-,N/A,,Overcast,0,2013-06-14 05:53:00
2:53 AM,52.0,50.0,93,29.70,10.0,Calm,Calm,-,N/A,,Overcast,0,2013-06-14 06:53:00
3:53 AM,52.0,50.0,93,29.69,10.0,Calm,Calm,-,N/A,,Overcast,0,2013-06-14 07:53:00
4:53 AM,51.1,50.0,96,29.70,10.0,Calm,Calm,-,N/A,,Overcast,0,2013-06-14 08:53:00
5:53 AM,52.0,51.1,97,29.71,10.0,Calm,Calm,-,N/A,,Overcast,0,2013-06-14 09:53:00
6:53 AM,55.9,53.1,90,29.70,10.0,Calm,Calm,-,N/A,,Overcast,0,2013-06-14 10:53:00
7:53 AM,57.9,52.0,81,29.69,10.0,North,4.6,-,N/A,,Overcast,10,2013-06-14 11:53:00
8:53 AM,60.1,54.0,80,29.69,10.0,North,3.5,-,N/A,,Overcast,10,2013-06-14 12:53:00
9:53 AM,64.0,53.1,67,29.68,10.0,NNE,4.6,-,N/A,,Mostly Cloudy,30,2013-06-14 13:53:00
10:53 AM,64.9,50.0,58,29.69,10.0,Calm,Calm,-,N/A,,Overcast,0,2013-06-14 14:53:00
11:53 AM,66.9,50.0,54,29.68,10.0,Variable,3.5,-,N/A,,Overcast,0,2013-06-14 15:53:00
12:53 PM,68.0,48.9,50,29.67,10.0,NNE,5.8,-,N/A,,Overcast,30,2013-06-14 16:53:00
1:53 PM,70.0,51.1,51,29.67,10.0,NE,4.6,-,N/A,,Overcast,40,2013-06-14 17:53:00
2:53 PM,71.1,50.0,47,29.65,10.0,North,3.5,-,N/A,,Mostly Cloudy,10,2013-06-14 18:53:00
3:53 PM,73.0,48.0,41,29.65,10.0,Calm,Calm,-,N/A,,Mostly Cloudy,0,2013-06-14 19:53:00
4:53 PM,73.0,48.9,42,29.64,10.0,Calm,Calm,-,N/A,,Mostly Cloudy,0,2013-06-14 20:53:00
5:53 PM,68.0,53.1,59,29.65,10.0,South,6.9,-,N/A,,Mostly Cloudy,190,2013-06-14 21:53:00
6:53 PM,63.0,55.9,78,29.66,10.0,South,9.2,-,0.00,,Mostly Cloudy,180,2013-06-14 22:53:00
7:53 PM,60.1,52.0,75,29.68,10.0,SSW,5.8,-,N/A,,Mostly Cloudy,200,2013-06-14 23:53:00
8:53 PM,57.9,50.0,75,29.71,10.0,SW,6.9,-,N/A,,Mostly Cloudy,220,2013-06-15 00:53:00
9:53 PM,55.9,51.1,84,29.72,10.0,Calm,Calm,-,0.00,,Overcast,0,2013-06-15 01:53:00
10:53 PM,55.0,50.0,83,29.70,10.0,South,5.8,-,N/A,,Overcast,190,2013-06-15 02:53:00
11:53 PM,52.0,50.0,93,29.70,10.0,South,3.5,-,N/A,,Partly Cloudy,180,2013-06-15 03:53:00